createdAt,value
2022-09-23T00:01:15.266Z,9.32
2022-09-23T00:03:45.512Z,9.80
2022-09-23T00:06:15.576Z,8.95
2022-09-23T00:08:43.811Z,8.55
2022-09-23T00:11:22.523Z,8.70
2022-09-23T00:13:51.738Z,9.23
2022-09-23T00:16:36.655Z,9.85
2022-09-23T00:19:04.778Z,9.50
2022-09-23T00:21:31.434Z,9.18
2022-09-23T00:23:58.004Z,8.82
2022-09-23T00:26:25.503Z,8.68
2022-09-23T00:28:52.633Z,9.05
2022-09-23T00:31:26.081Z,8.45
2022-09-23T00:33:54.871Z,8.45
2022-09-23T00:36:21.492Z,8.05
2022-09-23T00:38:48.071Z,8.27
2022-09-23T00:41:17.818Z,8.75
2022-09-23T00:43:53.595Z,8.80
2022-09-23T00:46:29.855Z,8.45
2022-09-23T00:49:02.162Z,8.20
2022-09-23T00:51:35.797Z,8.80
2022-09-23T00:54:03.383Z,8.52
2022-09-23T00:56:32.254Z,8.07
2022-09-23T00:59:00.563Z,8.50
2022-09-23T01:01:27.226Z,7.03
2022-09-23T01:03:55.327Z,8.13
2022-09-23T01:06:22.782Z,7.47
2022-09-23T01:08:49.771Z,7.75
2022-09-23T01:11:16.267Z,7.55
2022-09-23T01:14:20.844Z,8.32
2022-09-23T01:16:51.223Z,7.88
2022-09-23T01:19:27.809Z,7.85
2022-09-23T01:22:04.990Z,7.30
2022-09-23T01:25:05.716Z,7.15
2022-09-23T01:27:52.281Z,6.57
2022-09-23T01:30:47.919Z,6.57
2022-09-23T01:33:23.104Z,6.50
2022-09-23T01:36:12.101Z,6.32
2022-09-23T01:38:44.814Z,6.70
2022-09-23T01:41:24.239Z,7.20
2022-09-23T01:43:56.426Z,7.07
2022-09-23T01:46:42.914Z,7.00
2022-09-23T01:49:15.042Z,6.43
2022-09-23T01:51:51.117Z,6.35
2022-09-23T01:54:32.784Z,5.60
2022-09-23T01:57:16.958Z,6.00
2022-09-23T01:59:50.114Z,6.20
2022-09-23T02:02:33.411Z,5.80
2022-09-23T02:05:11.550Z,5.72
2022-09-23T02:07:47.099Z,5.68
2022-09-23T02:10:20.572Z,5.75
2022-09-23T02:12:50.711Z,5.63
2022-09-23T02:15:21.201Z,5.43
2022-09-23T02:17:54.818Z,4.93
2022-09-23T02:20:42.120Z,4.80
2022-09-23T02:23:15.472Z,5.53
2022-09-23T02:26:03.201Z,5.00
2022-09-23T02:28:38.944Z,4.68
2022-09-23T02:31:12.166Z,4.68
2022-09-23T02:33:47.029Z,4.57
2022-09-23T02:36:26.108Z,4.90
2022-09-23T02:38:58.227Z,4.65
2022-09-23T02:41:36.828Z,4.47
2022-09-23T02:44:11.742Z,4.45
